Time;durP1;ratioP1;P1;durP2;ratioP2;P2;SDS_P1;SDS_P2;PMS_P1;PMS_P2;Temp;Humidity;BMP_temperature;BMP_pressure;BME280_temperature;BME280_humidity;BME280_pressure;Samples;Min_cycle;Max_cycle;Signal;HPM_P1;HPM_P2
2022/07/06 00:00:45;;;;;;;;;;;25.40;45.50;;;;;;5010735;28;19929;-75
2022/07/06 00:03:12;;;;;;;;;;;25.30;45.60;;;;;;5008085;28;19936;-75
2022/07/06 00:05:39;;;;;;;;;;;25.30;45.80;;;;;;5014657;28;19929;-74
2022/07/06 00:08:06;;;;;;;;;;;25.20;45.80;;;;;;5010015;28;19925;-77
2022/07/06 00:10:32;;;;;;;;;;;25.20;46.20;;;;;;5005922;28;19932;-74
2022/07/06 00:12:59;;;;;;;;;;;25.10;46.30;;;;;;5011237;28;19937;-74
2022/07/06 00:15:25;;;;;;;;;;;25.10;46.50;;;;;;5010055;28;19941;-74
2022/07/06 00:17:52;;;;;;;;;;;25.00;46.70;;;;;;5016127;28;19946;-74
2022/07/06 00:20:20;;;;;;;;;;;25.00;46.70;;;;;;5012576;28;19933;-76
2022/07/06 00:22:46;;;;;;;;;;;25.00;46.80;;;;;;5017095;28;19934;-74
2022/07/06 00:25:13;;;;;;;;;;;24.90;46.80;;;;;;5006392;28;19933;-77
2022/07/06 00:27:39;;;;;;;;;;;24.90;47.00;;;;;;5011076;28;19926;-75
2022/07/06 00:30:07;;;;;;;;;;;24.90;47.20;;;;;;5016505;28;19932;-73
2022/07/06 00:32:33;;;;;;;;;;;24.80;47.10;;;;;;5009882;28;19925;-73
2022/07/06 00:35:00;;;;;;;;;;;24.80;47.30;;;;;;5010198;28;19929;-75
2022/07/06 00:37:28;;;;;;;;;;;24.70;47.30;;;;;;5014805;28;19933;-74
2022/07/06 00:39:54;;;;;;;;;;;24.70;47.30;;;;;;5009475;28;20008;-75
2022/07/06 00:42:21;;;;;;;;;;;24.60;47.10;;;;;;5012905;28;19933;-75
2022/07/06 00:44:47;;;;;;;;;;;24.60;47.50;;;;;;5012172;28;19964;-75
2022/07/06 00:47:14;;;;;;;;;;;24.50;47.40;;;;;;5009230;28;20291;-77
2022/07/06 00:52:25;;;;;;;;;;;24.40;47.60;;;;;;5006509;28;19989;-76
2022/07/06 00:54:53;;;;;;;;;;;24.40;47.50;;;;;;5010336;28;19933;-76
2022/07/06 00:57:20;;;;;;;;;;;24.30;47.80;;;;;;5019831;28;19969;-74
2022/07/06 00:59:46;;;;;;;;;;;24.30;47.90;;;;;;5023834;28;19933;-77
2022/07/06 01:02:13;;;;;;;;;;;24.30;48.10;;;;;;5005457;28;19930;-76
2022/07/06 01:04:39;;;;;;;;;;;24.20;48.10;;;;;;5010238;28;19925;-75
2022/07/06 01:07:06;;;;;;;;;;;24.20;48.30;;;;;;5013253;28;19936;-76
2022/07/06 01:09:33;;;;;;;;;;;24.20;48.30;;;;;;5012050;28;20286;-74
2022/07/06 01:12:01;;;;;;;;;;;24.10;48.40;;;;;;5006255;28;20045;-73
2022/07/06 01:14:27;;;;;;;;;;;24.10;48.40;;;;;;5014559;28;19930;-75
2022/07/06 01:16:54;;;;;;;;;;;24.00;48.50;;;;;;5011372;28;20370;-75
2022/07/06 01:19:21;;;;;;;;;;;24.00;48.60;;;;;;5012936;28;19929;-75
2022/07/06 01:21:48;;;;;;;;;;;23.90;48.90;;;;;;5010801;28;19933;-74
2022/07/06 01:24:15;;;;;;;;;;;23.90;49.00;;;;;;5008343;28;19984;-76
2022/07/06 01:26:42;;;;;;;;;;;23.80;48.80;;;;;;5008584;28;19934;-73
2022/07/06 01:29:08;;;;;;;;;;;23.80;48.80;;;;;;5010341;28;19937;-74
2022/07/06 01:31:35;;;;;;;;;;;23.80;48.90;;;;;;5012422;28;19933;-74
2022/07/06 01:34:01;;;;;;;;;;;23.70;49.10;;;;;;5006088;28;19932;-73
2022/07/06 01:36:28;;;;;;;;;;;23.70;49.30;;;;;;5007298;28;19933;-74
2022/07/06 01:38:58;;;;;;;;;;;23.70;49.40;;;;;;5009429;28;19933;-75
2022/07/06 01:41:24;;;;;;;;;;;23.60;49.50;;;;;;5009811;28;19932;-76
2022/07/06 01:43:51;;;;;;;;;;;23.60;49.40;;;;;;5006930;28;20341;-76
2022/07/06 01:46:19;;;;;;;;;;;23.60;49.40;;;;;;5005767;28;19929;-74
2022/07/06 01:48:45;;;;;;;;;;;23.50;49.50;;;;;;5010942;28;19930;-74
2022/07/06 01:51:12;;;;;;;;;;;23.50;49.60;;;;;;5008334;28;19929;-74
2022/07/06 01:53:39;;;;;;;;;;;23.40;49.70;;;;;;5011173;28;19981;-73
2022/07/06 01:56:08;;;;;;;;;;;23.40;49.90;;;;;;5008753;28;19932;-72
2022/07/06 01:58:34;;;;;;;;;;;23.30;49.90;;;;;;5009005;28;19936;-74
2022/07/06 02:01:01;;;;;;;;;;;23.30;49.90;;;;;;5014782;28;19936;-73
2022/07/06 02:03:27;;;;;;;;;;;23.30;50.00;;;;;;5008201;28;19930;-73
2022/07/06 02:05:54;;;;;;;;;;;23.20;50.10;;;;;;5009596;28;19929;-74
2022/07/06 02:08:20;;;;;;;;;;;23.20;50.30;;;;;;5014190;28;19929;-76
2022/07/06 02:10:47;;;;;;;;;;;23.20;50.30;;;;;;5006379;28;19939;-76
2022/07/06 02:13:15;;;;;;;;;;;23.10;50.40;;;;;;5007267;28;19937;-73
2022/07/06 02:15:41;;;;;;;;;;;23.10;50.40;;;;;;5008244;28;19925;-76
2022/07/06 02:18:08;;;;;;;;;;;23.00;50.50;;;;;;5008720;28;19940;-75
2022/07/06 02:20:35;;;;;;;;;;;23.00;50.50;;;;;;5013492;28;19929;-73
2022/07/06 02:23:01;;;;;;;;;;;23.00;50.60;;;;;;5012331;28;19948;-74
2022/07/06 02:25:28;;;;;;;;;;;22.90;50.70;;;;;;5008542;28;19936;-74
2022/07/06 02:27:54;;;;;;;;;;;22.90;50.80;;;;;;5014285;28;19932;-75
2022/07/06 02:30:22;;;;;;;;;;;22.90;50.90;;;;;;5006152;28;19940;-75
2022/07/06 02:32:49;;;;;;;;;;;22.90;51.10;;;;;;5012703;28;19925;-76
2022/07/06 02:35:15;;;;;;;;;;;22.80;51.80;;;;;;5008161;28;19933;-74
2022/07/06 02:37:42;;;;;;;;;;;22.80;51.20;;;;;;5014429;28;19926;-75
2022/07/06 02:40:09;;;;;;;;;;;22.70;51.20;;;;;;5009614;28;19936;-73
2022/07/06 02:42:36;;;;;;;;;;;22.70;51.30;;;;;;5008941;28;19926;-74
2022/07/06 02:45:03;;;;;;;;;;;22.70;51.40;;;;;;5007812;28;19933;-73
2022/07/06 02:47:31;;;;;;;;;;;22.60;51.60;;;;;;5007448;28;19936;-74
2022/07/06 02:49:57;;;;;;;;;;;22.60;51.70;;;;;;5009279;28;19929;-74
2022/07/06 02:52:24;;;;;;;;;;;22.50;51.70;;;;;;5007267;28;19933;-77
2022/07/06 02:54:50;;;;;;;;;;;22.50;51.90;;;;;;5008255;28;20456;-76
2022/07/06 02:57:17;;;;;;;;;;;22.50;51.80;;;;;;5010831;28;20263;-75
2022/07/06 02:59:44;;;;;;;;;;;22.40;52.00;;;;;;5009655;28;19937;-76
2022/07/06 03:02:10;;;;;;;;;;;22.40;52.10;;;;;;5008996;28;19944;-76
2022/07/06 03:04:38;;;;;;;;;;;22.40;52.10;;;;;;5008050;28;19929;-77
2022/07/06 03:07:05;;;;;;;;;;;22.30;52.20;;;;;;5010210;28;19929;-74
2022/07/06 03:09:31;;;;;;;;;;;22.30;52.30;;;;;;5006702;28;19930;-73
2022/07/06 03:11:58;;;;;;;;;;;22.20;52.30;;;;;;5009763;28;19936;-75
2022/07/06 03:14:25;;;;;;;;;;;22.20;52.40;;;;;;5006958;28;20640;-75
2022/07/06 03:16:52;;;;;;;;;;;22.20;52.60;;;;;;5010707;28;19956;-76
2022/07/06 03:19:18;;;;;;;;;;;22.10;52.70;;;;;;5011421;28;19980;-75
2022/07/06 03:21:46;;;;;;;;;;;22.10;52.90;;;;;;5004191;28;19929;-73
2022/07/06 03:24:13;;;;;;;;;;;22.10;53.00;;;;;;5007625;28;20521;-77
2022/07/06 03:26:40;;;;;;;;;;;22.10;53.00;;;;;;5003827;28;19925;-74
2022/07/06 03:29:06;;;;;;;;;;;22.00;53.10;;;;;;5009103;28;19925;-74
2022/07/06 03:31:33;;;;;;;;;;;22.00;53.20;;;;;;5008741;28;19925;-74
2022/07/06 03:33:59;;;;;;;;;;;22.00;53.30;;;;;;5005302;28;19937;-74
2022/07/06 03:36:26;;;;;;;;;;;21.90;53.20;;;;;;5005827;28;19937;-75
2022/07/06 03:38:54;;;;;;;;;;;21.90;53.50;;;;;;5007067;28;19921;-76
2022/07/06 03:41:20;;;;;;;;;;;21.80;53.50;;;;;;5002213;28;19936;-74
2022/07/06 03:43:47;;;;;;;;;;;21.80;53.50;;;;;;5005467;28;19933;-73
2022/07/06 03:46:13;;;;;;;;;;;21.80;53.70;;;;;;5005024;28;20333;-77
2022/07/06 03:48:40;;;;;;;;;;;21.80;53.80;;;;;;5001942;28;19933;-78
2022/07/06 03:51:07;;;;;;;;;;;21.70;53.90;;;;;;5005310;28;19984;-74
2022/07/06 03:53:33;;;;;;;;;;;21.70;53.90;;;;;;5005675;28;19926;-74
2022/07/06 03:58:45;;;;;;;;;;;21.60;54.00;;;;;;5007622;28;19936;-77
2022/07/06 04:01:12;;;;;;;;;;;21.60;54.10;;;;;;5011019;28;19936;-74
2022/07/06 04:03:39;;;;;;;;;;;21.60;54.20;;;;;;5006690;28;19929;-76
2022/07/06 04:06:05;;;;;;;;;;;21.50;54.20;;;;;;5009077;28;19933;-74
2022/07/06 04:08:32;;;;;;;;;;;21.50;54.40;;;;;;5003750;28;19929;-72
2022/07/06 04:10:58;;;;;;;;;;;21.50;54.40;;;;;;5006816;28;20775;-75
2022/07/06 04:13:26;;;;;;;;;;;21.40;54.40;;;;;;5006323;28;19929;-75
2022/07/06 04:15:53;;;;;;;;;;;21.40;54.60;;;;;;5004669;28;20297;-73
2022/07/06 04:18:19;;;;;;;;;;;21.40;54.60;;;;;;5004362;28;19934;-76
2022/07/06 04:20:46;;;;;;;;;;;21.40;54.70;;;;;;5003230;28;19933;-77
2022/07/06 04:23:13;;;;;;;;;;;21.30;54.70;;;;;;5000954;28;19941;-78
2022/07/06 04:25:39;;;;;;;;;;;21.30;54.80;;;;;;5005797;28;19926;-74
2022/07/06 04:28:06;;;;;;;;;;;21.30;54.80;;;;;;5007188;28;20680;-74
2022/07/06 04:30:34;;;;;;;;;;;21.30;54.80;;;;;;5006640;28;19929;-73
2022/07/06 04:33:00;;;;;;;;;;;21.20;54.80;;;;;;5006755;28;19956;-75
2022/07/06 04:35:27;;;;;;;;;;;21.20;55.00;;;;;;5004962;28;19929;-73
2022/07/06 04:37:53;;;;;;;;;;;21.20;54.90;;;;;;5005640;28;19925;-74
2022/07/06 04:40:20;;;;;;;;;;;21.20;55.00;;;;;;5005764;28;19930;-74
2022/07/06 04:42:46;;;;;;;;;;;21.10;55.00;;;;;;5005908;28;19934;-73
2022/07/06 04:45:13;;;;;;;;;;;21.10;55.00;;;;;;5010507;28;19926;-76
2022/07/06 04:47:43;;;;;;;;;;;21.10;55.00;;;;;;5005765;28;19929;-75
2022/07/06 04:50:10;;;;;;;;;;;21.10;55.10;;;;;;5008593;28;19960;-73
2022/07/06 04:52:36;;;;;;;;;;;21.10;55.20;;;;;;5007468;28;19929;-73
2022/07/06 04:55:04;;;;;;;;;;;21.00;55.10;;;;;;5006604;28;19929;-72
2022/07/06 04:57:31;;;;;;;;;;;21.00;55.10;;;;;;5006398;28;20016;-74
2022/07/06 04:59:57;;;;;;;;;;;21.00;55.10;;;;;;5008282;28;19932;-72
2022/07/06 05:02:24;;;;;;;;;;;21.00;55.20;;;;;;5009025;28;19926;-74
2022/07/06 05:04:52;;;;;;;;;;;21.00;55.30;;;;;;5008711;28;19933;-73
2022/07/06 05:07:20;;;;;;;;;;;21.00;55.20;;;;;;5009189;28;20013;-73
2022/07/06 05:09:46;;;;;;;;;;;20.90;55.20;;;;;;5001000;28;20338;-75
2022/07/06 05:12:13;;;;;;;;;;;20.90;55.20;;;;;;5000470;28;20416;-74
2022/07/06 05:14:39;;;;;;;;;;;20.90;55.20;;;;;;4998052;28;19936;-72
2022/07/06 05:17:06;;;;;;;;;;;20.80;54.50;;;;;;4996634;28;19934;-75
2022/07/06 05:19:32;;;;;;;;;;;20.60;54.40;;;;;;5001984;28;19934;-74
2022/07/06 05:22:00;;;;;;;;;;;20.40;55.20;;;;;;5003156;28;19955;-72
2022/07/06 05:24:27;;;;;;;;;;;20.20;55.80;;;;;;4999067;28;19937;-73
2022/07/06 05:26:53;;;;;;;;;;;20.20;56.70;;;;;;5001352;28;20006;-72
2022/07/06 05:29:20;;;;;;;;;;;20.10;57.00;;;;;;5003442;28;20770;-72
2022/07/06 05:31:46;;;;;;;;;;;20.10;57.00;;;;;;5001321;28;20354;-74
2022/07/06 05:34:13;;;;;;;;;;;20.20;57.00;;;;;;5002323;28;20734;-75
2022/07/06 05:36:39;;;;;;;;;;;20.20;56.90;;;;;;4998678;28;19934;-73
2022/07/06 05:39:07;;;;;;;;;;;20.20;56.60;;;;;;5002943;28;19999;-72
2022/07/06 05:41:34;;;;;;;;;;;20.20;56.70;;;;;;5000209;28;19933;-72
2022/07/06 05:44:00;;;;;;;;;;;20.30;56.50;;;;;;5002178;28;19929;-65
2022/07/06 05:46:28;;;;;;;;;;;20.30;56.60;;;;;;5003206;28;20023;-65
2022/07/06 05:51:38;;;;;;;;;;;20.30;57.00;;;;;;5002604;28;19932;-66
2022/07/06 05:54:05;;;;;;;;;;;20.30;56.50;;;;;;5006118;28;19933;-64
2022/07/06 05:56:33;;;;;;;;;;;20.30;56.40;;;;;;5004194;28;19929;-63
2022/07/06 05:58:59;;;;;;;;;;;20.40;56.30;;;;;;5003010;28;19933;-64
2022/07/06 06:01:26;;;;;;;;;;;20.40;56.20;;;;;;5003840;28;19930;-65
2022/07/06 06:03:52;;;;;;;;;;;20.40;56.20;;;;;;5005699;28;19933;-67
2022/07/06 06:06:19;;;;;;;;;;;20.40;56.30;;;;;;5004503;28;19929;-67
2022/07/06 06:08:46;;;;;;;;;;;20.40;56.20;;;;;;5003010;28;19929;-66
2022/07/06 06:11:12;;;;;;;;;;;20.40;56.10;;;;;;5003206;28;19929;-65
2022/07/06 06:13:40;;;;;;;;;;;20.40;55.90;;;;;;5004447;28;19957;-68
2022/07/06 06:16:07;;;;;;;;;;;20.40;56.00;;;;;;5001036;28;19933;-67
2022/07/06 06:18:33;;;;;;;;;;;20.40;56.00;;;;;;4994108;28;19936;-65
2022/07/06 06:21:00;;;;;;;;;;;20.40;56.20;;;;;;5003236;28;19942;-67
2022/07/06 06:23:26;;;;;;;;;;;20.40;56.10;;;;;;5005143;28;19940;-66
2022/07/06 06:25:53;;;;;;;;;;;20.40;56.00;;;;;;4997776;28;19937;-64
2022/07/06 06:28:19;;;;;;;;;;;20.40;56.20;;;;;;5004318;28;19934;-67
2022/07/06 06:30:47;;;;;;;;;;;20.40;56.10;;;;;;5000743;28;19991;-63
2022/07/06 06:33:14;;;;;;;;;;;20.40;56.00;;;;;;4997609;28;19929;-65
2022/07/06 06:35:43;;;;;;;;;;;20.40;56.00;;;;;;5001117;28;19930;-67
2022/07/06 06:38:09;;;;;;;;;;;20.50;56.00;;;;;;5003821;28;19926;-66
2022/07/06 06:40:36;;;;;;;;;;;20.50;55.90;;;;;;5000746;28;19933;-65
2022/07/06 06:43:02;;;;;;;;;;;20.50;55.70;;;;;;5003289;28;19936;-65
2022/07/06 06:45:29;;;;;;;;;;;20.50;55.70;;;;;;5002710;28;19929;-65
2022/07/06 06:47:57;;;;;;;;;;;20.50;55.70;;;;;;5002049;28;19929;-67
2022/07/06 06:50:23;;;;;;;;;;;20.50;55.60;;;;;;5003462;28;19929;-66
2022/07/06 06:52:50;;;;;;;;;;;20.50;55.60;;;;;;5000219;28;19930;-67
2022/07/06 06:55:17;;;;;;;;;;;20.50;55.50;;;;;;5001148;28;20457;-64
2022/07/06 06:57:43;;;;;;;;;;;20.50;55.60;;;;;;5002478;28;20948;-64
2022/07/06 07:00:10;;;;;;;;;;;20.50;55.70;;;;;;5002881;28;19936;-68
2022/07/06 07:02:38;;;;;;;;;;;20.60;55.90;;;;;;5003128;28;19933;-65
2022/07/06 07:05:07;;;;;;;;;;;20.50;55.80;;;;;;5003441;28;19938;-64
2022/07/06 07:07:33;;;;;;;;;;;20.60;55.90;;;;;;5002297;28;19925;-65
2022/07/06 07:10:00;;;;;;;;;;;20.60;55.50;;;;;;5002302;28;19983;-66
2022/07/06 07:12:26;;;;;;;;;;;20.60;55.60;;;;;;5003294;28;19940;-67
2022/07/06 07:14:53;;;;;;;;;;;20.60;55.50;;;;;;5002987;28;19936;-65
2022/07/06 07:17:20;;;;;;;;;;;20.60;55.50;;;;;;5002895;28;20013;-68
2022/07/06 07:19:46;;;;;;;;;;;20.60;55.60;;;;;;4999087;28;20760;-68
2022/07/06 07:22:14;;;;;;;;;;;20.70;55.50;;;;;;5004350;28;20401;-69
2022/07/06 07:24:41;;;;;;;;;;;20.60;55.60;;;;;;4999347;28;20642;-67
2022/07/06 07:27:07;;;;;;;;;;;20.70;55.70;;;;;;5002910;28;19940;-66
2022/07/06 07:29:34;;;;;;;;;;;20.70;55.60;;;;;;5004281;28;19933;-65
2022/07/06 07:32:00;;;;;;;;;;;20.70;55.70;;;;;;5001286;28;19930;-67
2022/07/06 07:34:27;;;;;;;;;;;20.70;55.70;;;;;;4996988;28;19936;-75
2022/07/06 07:36:53;;;;;;;;;;;20.70;55.70;;;;;;4997780;28;20024;-72
2022/07/06 07:39:21;;;;;;;;;;;20.70;55.90;;;;;;4998946;28;19960;-75
2022/07/06 07:41:50;;;;;;;;;;;20.70;55.80;;;;;;4995119;28;20465;-74
2022/07/06 07:44:16;;;;;;;;;;;20.80;55.70;;;;;;4999142;28;20433;-74
2022/07/06 07:46:43;;;;;;;;;;;20.80;55.60;;;;;;5000839;28;20409;-76
2022/07/06 07:49:09;;;;;;;;;;;20.80;55.70;;;;;;5000648;28;19940;-74
2022/07/06 07:51:36;;;;;;;;;;;20.80;55.70;;;;;;5000694;28;19929;-73
2022/07/06 07:54:03;;;;;;;;;;;20.80;55.50;;;;;;4999403;28;19945;-73
2022/07/06 07:56:30;;;;;;;;;;;20.90;55.60;;;;;;4996993;28;20690;-73
2022/07/06 07:58:57;;;;;;;;;;;20.80;55.50;;;;;;4998970;28;19929;-75
2022/07/06 08:01:23;;;;;;;;;;;20.90;55.60;;;;;;4999390;28;19952;-73
2022/07/06 08:03:50;;;;;;;;;;;20.90;55.60;;;;;;5001071;28;19960;-76
2022/07/06 08:06:17;;;;;;;;;;;20.90;55.30;;;;;;5000226;28;19933;-74
2022/07/06 08:08:43;;;;;;;;;;;20.90;55.40;;;;;;5001473;28;20561;-75
2022/07/06 08:11:10;;;;;;;;;;;21.00;55.60;;;;;;4994791;28;19933;-76
2022/07/06 08:13:38;;;;;;;;;;;21.00;55.30;;;;;;4999889;28;19941;-74
2022/07/06 08:16:04;;;;;;;;;;;21.00;55.40;;;;;;5000635;28;19941;-73
2022/07/06 08:18:31;;;;;;;;;;;21.00;55.30;;;;;;4998722;28;20309;-74
2022/07/06 08:20:57;;;;;;;;;;;21.00;55.20;;;;;;5002147;28;19936;-72
2022/07/06 08:23:24;;;;;;;;;;;21.00;55.20;;;;;;5002952;28;19929;-76
2022/07/06 08:25:51;;;;;;;;;;;21.10;55.30;;;;;;4997764;28;19936;-76
2022/07/06 08:28:17;;;;;;;;;;;21.10;55.10;;;;;;5002288;28;19933;-73
2022/07/06 08:30:45;;;;;;;;;;;21.10;55.00;;;;;;4999622;28;19930;-75
2022/07/06 08:33:12;;;;;;;;;;;21.20;55.10;;;;;;5000838;28;19932;-75
2022/07/06 08:35:38;;;;;;;;;;;21.20;55.00;;;;;;5003301;28;19929;-73
2022/07/06 08:38:05;;;;;;;;;;;21.20;55.20;;;;;;4999511;28;19937;-74
2022/07/06 08:40:33;;;;;;;;;;;21.20;55.00;;;;;;4997816;28;19933;-73
2022/07/06 08:43:00;;;;;;;;;;;21.20;54.90;;;;;;4999567;28;19929;-75
2022/07/06 08:45:27;;;;;;;;;;;21.20;54.80;;;;;;5003178;28;19929;-74
2022/07/06 08:47:55;;;;;;;;;;;21.20;54.60;;;;;;5003894;28;19929;-73
2022/07/06 08:50:22;;;;;;;;;;;21.30;54.60;;;;;;4997319;28;19929;-73
2022/07/06 08:52:49;;;;;;;;;;;21.30;54.40;;;;;;5001339;28;19941;-74
2022/07/06 08:55:16;;;;;;;;;;;21.30;54.40;;;;;;5003005;28;20144;-76
2022/07/06 08:57:43;;;;;;;;;;;21.30;54.30;;;;;;4998525;28;19930;-74
2022/07/06 09:00:10;;;;;;;;;;;21.40;54.30;;;;;;5002858;28;19925;-75
2022/07/06 09:02:36;;;;;;;;;;;21.40;54.20;;;;;;5003970;28;19933;-74
2022/07/06 09:05:05;;;;;;;;;;;21.40;54.00;;;;;;5003208;28;20290;-73
2022/07/06 09:07:31;;;;;;;;;;;21.50;54.10;;;;;;5005634;28;19933;-74
2022/07/06 09:09:59;;;;;;;;;;;21.50;54.00;;;;;;5002243;28;19929;-74
2022/07/06 09:12:27;;;;;;;;;;;21.50;53.90;;;;;;5005171;28;19929;-74
2022/07/06 09:14:55;;;;;;;;;;;21.50;53.80;;;;;;5005298;28;20578;-73
2022/07/06 09:17:21;;;;;;;;;;;21.60;53.80;;;;;;5005394;28;19929;-76
2022/07/06 09:19:48;;;;;;;;;;;21.60;53.70;;;;;;5002589;28;19972;-73
2022/07/06 09:22:26;;;;;;;;;;;21.60;53.60;;;;;;5005697;28;19929;-74
2022/07/06 09:24:53;;;;;;;;;;;21.60;53.60;;;;;;5002125;28;20011;-75
2022/07/06 09:27:20;;;;;;;;;;;21.70;53.40;;;;;;5006420;28;19930;-73
2022/07/06 09:29:46;;;;;;;;;;;21.70;53.40;;;;;;5006662;28;19930;-74
2022/07/06 09:32:14;;;;;;;;;;;21.80;53.10;;;;;;5002416;28;19925;-73
2022/07/06 09:34:42;;;;;;;;;;;21.80;53.10;;;;;;5005422;28;19972;-74
2022/07/06 09:37:09;;;;;;;;;;;21.80;53.10;;;;;;5006576;28;19972;-73
2022/07/06 09:39:37;;;;;;;;;;;21.90;53.00;;;;;;5006361;28;19933;-73
2022/07/06 09:42:04;;;;;;;;;;;21.90;53.20;;;;;;5003242;28;19934;-73
2022/07/06 09:44:31;;;;;;;;;;;21.90;53.20;;;;;;5003699;28;20021;-73
2022/07/06 09:46:59;;;;;;;;;;;22.00;53.40;;;;;;5004724;28;20095;-73
2022/07/06 09:49:26;;;;;;;;;;;22.00;53.30;;;;;;5005087;28;19933;-75
2022/07/06 09:51:56;;;;;;;;;;;22.00;52.90;;;;;;5003887;28;19929;-74
2022/07/06 09:54:23;;;;;;;;;;;22.10;53.00;;;;;;5004120;28;19929;-74
2022/07/06 09:56:51;;;;;;;;;;;22.10;52.60;;;;;;5001599;28;20052;-73
2022/07/06 09:59:19;;;;;;;;;;;22.10;52.50;;;;;;5003518;28;19933;-76
2022/07/06 10:01:46;;;;;;;;;;;22.20;52.50;;;;;;5004511;28;19991;-75
2022/07/06 10:04:13;;;;;;;;;;;22.20;52.20;;;;;;5004916;28;19930;-75
2022/07/06 10:06:40;;;;;;;;;;;22.30;52.20;;;;;;5000297;28;19926;-76
2022/07/06 10:09:08;;;;;;;;;;;22.30;52.00;;;;;;4998285;28;19937;-73
2022/07/06 10:11:35;;;;;;;;;;;22.40;51.70;;;;;;5000305;28;19937;-72
2022/07/06 10:14:04;;;;;;;;;;;22.40;51.20;;;;;;5001660;28;19930;-73
2022/07/06 10:16:31;;;;;;;;;;;22.50;51.10;;;;;;4999625;28;20265;-73
2022/07/06 10:18:58;;;;;;;;;;;22.50;51.00;;;;;;4993788;28;19930;-73
2022/07/06 10:21:25;;;;;;;;;;;22.60;51.00;;;;;;4995590;28;19937;-77
2022/07/06 10:23:52;;;;;;;;;;;22.60;51.50;;;;;;5003120;28;19929;-79
2022/07/06 10:26:19;;;;;;;;;;;22.70;51.20;;;;;;4997064;28;19929;-78
2022/07/06 10:28:46;;;;;;;;;;;22.80;51.30;;;;;;4994909;28;19940;-66
2022/07/06 10:31:15;;;;;;;;;;;22.80;51.60;;;;;;4994649;28;20020;-67
2022/07/06 10:33:42;;;;;;;;;;;22.80;52.30;;;;;;5002888;28;20069;-66
2022/07/06 10:36:09;;;;;;;;;;;22.90;52.40;;;;;;5004983;28;20312;-64
2022/07/06 10:38:36;;;;;;;;;;;22.90;51.60;;;;;;5003568;28;19932;-65
2022/07/06 10:41:02;;;;;;;;;;;22.90;51.50;;;;;;4999963;28;19929;-63
2022/07/06 10:43:32;;;;;;;;;;;23.00;51.30;;;;;;5003346;28;19955;-66
2022/07/06 10:45:59;;;;;;;;;;;23.10;51.60;;;;;;5000231;28;19929;-63
2022/07/06 10:48:34;;;;;;;;;;;23.10;51.50;;;;;;5003650;28;20465;-64
2022/07/06 10:51:04;;;;;;;;;;;23.10;49.90;;;;;;5003907;28;21364;-64
2022/07/06 10:53:33;;;;;;;;;;;23.20;50.20;;;;;;5002902;28;19925;-64
2022/07/06 10:56:01;;;;;;;;;;;23.30;50.30;;;;;;5004014;28;20496;-68
2022/07/06 10:58:55;;;;;;;;;;;23.30;50.40;;;;;;5002612;28;21036;-67
2022/07/06 11:01:23;;;;;;;;;;;23.40;50.70;;;;;;4987061;28;19936;-68
2022/07/06 11:03:51;;;;;;;;;;;23.50;48.80;;;;;;5003786;28;19929;-67
2022/07/06 11:06:18;;;;;;;;;;;23.50;49.40;;;;;;5005421;28;19930;-67
2022/07/06 11:08:46;;;;;;;;;;;23.50;48.70;;;;;;5002607;28;19937;-64
2022/07/06 11:11:14;;;;;;;;;;;23.60;48.70;;;;;;5001543;28;20331;-66
2022/07/06 11:13:44;;;;;;;;;;;23.70;49.20;;;;;;5002955;28;19940;-67
2022/07/06 11:16:11;;;;;;;;;;;23.70;48.80;;;;;;4996719;28;19933;-65
2022/07/06 11:18:41;;;;;;;;;;;23.80;48.60;;;;;;5002783;28;20131;-67
2022/07/06 11:21:17;;;;;;;;;;;23.90;49.50;;;;;;5002359;28;20070;-66
2022/07/06 11:23:43;;;;;;;;;;;23.90;48.40;;;;;;5002503;28;19929;-67
2022/07/06 11:26:10;;;;;;;;;;;23.90;47.50;;;;;;4998991;28;19947;-66
2022/07/06 11:28:37;;;;;;;;;;;24.00;48.00;;;;;;5003727;28;19929;-66
2022/07/06 11:31:04;;;;;;;;;;;24.00;47.70;;;;;;5001500;28;20010;-63
2022/07/06 11:33:31;;;;;;;;;;;24.10;48.70;;;;;;5001355;28;19937;-67
2022/07/06 11:36:12;;;;;;;;;;;24.10;47.70;;;;;;5003082;28;20749;-67
2022/07/06 11:38:40;;;;;;;;;;;24.20;47.40;;;;;;5003847;28;19941;-63
2022/07/06 11:41:06;;;;;;;;;;;24.20;47.10;;;;;;4998642;28;19936;-67
2022/07/06 11:43:33;;;;;;;;;;;24.30;47.30;;;;;;5002453;28;19952;-65
2022/07/06 11:45:59;;;;;;;;;;;24.30;48.40;;;;;;4999688;28;20620;-66
2022/07/06 11:48:26;;;;;;;;;;;24.30;47.30;;;;;;5002382;28;19934;-65
2022/07/06 11:50:59;;;;;;;;;;;24.40;47.60;;;;;;5000447;28;19933;-75
2022/07/06 11:53:26;;;;;;;;;;;24.40;47.70;;;;;;5000245;28;19936;-73
2022/07/06 11:55:54;;;;;;;;;;;24.50;47.60;;;;;;4997953;28;20404;-76
2022/07/06 11:58:21;;;;;;;;;;;24.50;48.20;;;;;;4998666;28;19925;-77
2022/07/06 12:01:03;;;;;;;;;;;24.50;48.20;;;;;;4996961;28;19980;-76
2022/07/06 12:03:29;;;;;;;;;;;24.60;48.00;;;;;;4999998;28;19929;-75
2022/07/06 12:05:56;;;;;;;;;;;24.60;47.50;;;;;;4998125;28;19929;-74
2022/07/06 12:08:22;;;;;;;;;;;24.60;47.10;;;;;;5003216;28;19933;-76
2022/07/06 12:10:49;;;;;;;;;;;24.70;47.70;;;;;;5001748;28;19929;-77
2022/07/06 12:13:17;;;;;;;;;;;24.70;48.00;;;;;;5005300;28;19933;-74
2022/07/06 12:15:43;;;;;;;;;;;24.70;47.00;;;;;;5003279;28;19933;-75
2022/07/06 12:18:10;;;;;;;;;;;24.70;46.80;;;;;;5004148;28;19932;-77
2022/07/06 12:20:36;;;;;;;;;;;24.70;46.00;;;;;;5001022;28;19929;-76
2022/07/06 12:23:03;;;;;;;;;;;24.90;47.10;;;;;;5004665;28;19933;-73
2022/07/06 12:25:30;;;;;;;;;;;24.90;48.00;;;;;;5002373;28;20628;-77
2022/07/06 12:27:56;;;;;;;;;;;24.90;48.00;;;;;;5002220;28;19936;-74
2022/07/06 12:30:24;;;;;;;;;;;25.00;46.70;;;;;;4996828;28;19937;-76
2022/07/06 12:33:06;;;;;;;;;;;25.10;47.00;;;;;;5002355;28;19952;-72
2022/07/06 12:35:32;;;;;;;;;;;25.10;47.50;;;;;;5004951;28;19930;-72
2022/07/06 12:38:00;;;;;;;;;;;25.10;46.50;;;;;;5007040;28;19929;-77
2022/07/06 12:40:27;;;;;;;;;;;25.20;46.10;;;;;;5002206;28;19929;-73
2022/07/06 12:42:54;;;;;;;;;;;25.20;46.40;;;;;;4998943;28;19995;-76
2022/07/06 12:45:20;;;;;;;;;;;25.30;45.80;;;;;;5005659;28;19953;-79
2022/07/06 12:47:59;;;;;;;;;;;25.30;44.70;;;;;;5007497;28;19929;-74
2022/07/06 12:50:31;;;;;;;;;;;25.40;45.70;;;;;;5001251;28;20056;-76
2022/07/06 12:52:58;;;;;;;;;;;25.40;46.60;;;;;;5000802;28;20040;-74
2022/07/06 12:55:26;;;;;;;;;;;25.50;46.60;;;;;;4998596;28;19933;-77
2022/07/06 12:57:53;;;;;;;;;;;25.50;46.70;;;;;;4999503;28;19935;-72
2022/07/06 13:00:21;;;;;;;;;;;25.50;46.50;;;;;;5007032;28;20743;-74
2022/07/06 13:02:53;;;;;;;;;;;25.50;45.70;;;;;;5011295;28;19929;-74
2022/07/06 13:05:27;;;;;;;;;;;25.60;45.50;;;;;;5004904;28;19959;-76
2022/07/06 13:07:55;;;;;;;;;;;25.50;46.40;;;;;;4997799;28;19929;-76
2022/07/06 13:10:22;;;;;;;;;;;25.60;46.70;;;;;;4994886;28;19941;-75
2022/07/06 13:12:49;;;;;;;;;;;25.60;45.90;;;;;;5003531;28;19929;-73
2022/07/06 13:15:15;;;;;;;;;;;25.60;45.40;;;;;;5001323;28;19929;-73
2022/07/06 13:17:42;;;;;;;;;;;25.60;46.20;;;;;;4996755;28;19930;-76
2022/07/06 13:20:10;;;;;;;;;;;25.70;44.90;;;;;;4997792;28;19999;-66
2022/07/06 13:22:38;;;;;;;;;;;25.70;45.60;;;;;;5004353;28;19933;-63
2022/07/06 13:25:05;;;;;;;;;;;25.80;44.00;;;;;;4996010;28;19930;-64
2022/07/06 13:27:32;;;;;;;;;;;25.90;45.00;;;;;;5003992;28;19940;-65
2022/07/06 13:29:58;;;;;;;;;;;25.90;44.90;;;;;;5005768;28;19933;-64
2022/07/06 13:32:25;;;;;;;;;;;25.90;44.00;;;;;;5002432;28;19933;-65
2022/07/06 13:34:51;;;;;;;;;;;26.00;44.00;;;;;;5003130;28;19968;-65
2022/07/06 13:37:19;;;;;;;;;;;26.10;45.10;;;;;;5004365;28;20413;-65
2022/07/06 13:39:47;;;;;;;;;;;26.10;44.80;;;;;;5001765;28;20417;-66
2022/07/06 13:42:14;;;;;;;;;;;26.20;44.80;;;;;;5004267;28;19929;-67
2022/07/06 13:44:40;;;;;;;;;;;26.20;45.40;;;;;;5004422;28;19929;-65
2022/07/06 13:47:07;;;;;;;;;;;26.20;45.10;;;;;;5003100;28;19945;-75
2022/07/06 13:49:34;;;;;;;;;;;26.30;43.70;;;;;;4999574;28;19930;-72
2022/07/06 13:52:03;;;;;;;;;;;26.40;45.50;;;;;;4999872;28;19926;-73
2022/07/06 13:54:30;;;;;;;;;;;26.40;45.40;;;;;;4996153;28;20193;-74
2022/07/06 13:56:58;;;;;;;;;;;26.50;45.10;;;;;;5000977;28;20020;-73
2022/07/06 13:59:25;;;;;;;;;;;26.50;44.80;;;;;;5001226;28;19929;-75
2022/07/06 14:01:51;;;;;;;;;;;26.50;44.60;;;;;;4994992;28;21373;-75
2022/07/06 14:04:18;;;;;;;;;;;26.60;43.50;;;;;;4999965;28;20400;-73
2022/07/06 14:06:44;;;;;;;;;;;26.60;44.00;;;;;;5000741;28;19933;-73
2022/07/06 14:09:11;;;;;;;;;;;26.70;43.30;;;;;;4998157;28;19936;-73
2022/07/06 14:11:37;;;;;;;;;;;26.70;42.90;;;;;;4995255;28;19937;-73
2022/07/06 14:14:07;;;;;;;;;;;26.80;43.60;;;;;;4996897;28;20471;-72
2022/07/06 14:16:35;;;;;;;;;;;26.80;43.70;;;;;;4993034;28;19937;-73
2022/07/06 14:19:01;;;;;;;;;;;26.90;43.40;;;;;;4993705;28;20705;-73
2022/07/06 14:21:28;;;;;;;;;;;26.90;42.80;;;;;;5001964;28;20078;-75
2022/07/06 14:23:54;;;;;;;;;;;27.00;42.20;;;;;;5000310;28;19934;-75